Time,TemperatureF,DewpointF,PressureIn,WindDirection,WindDirectionDegrees,WindSpeedMPH,WindSpeedGustMPH,Humidity,HourlyPrecipIn,Conditions,Clouds,dailyrainin,SoftwareType,DateUTC
2013-02-20 00:00:00,34.6,32.2,29.61,WNW,296,1.0,7.0,91,0.00,,OVC006,0.00,VWS V14.01,2013-02-20 05:00:00,
2013-02-20 00:01:00,35.6,33.5,29.60,NW,305,2.0,3.0,92,0.00,,OVC090,0.15,VWS V14.01,2013-02-20 05:01:00,
2013-02-20 00:10:00,35.3,33.2,29.60,WNW,292,2.0,2.0,92,0.00,,OVC080,0.00,VWS V14.01,2013-02-20 05:10:00,
2013-02-20 00:20:00,35.2,33.1,29.60,WNW,289,0.0,3.0,92,0.00,,OVC080,0.00,VWS V14.01,2013-02-20 05:20:00,
2013-02-20 00:30:00,35.0,32.6,29.60,WSW,255,2.0,4.0,91,0.00,,OVC080,0.00,VWS V14.01,2013-02-20 05:30:00,
2013-02-20 00:40:00,34.9,32.5,29.60,West,269,1.0,6.0,91,0.00,,OVC080,0.00,VWS V14.01,2013-02-20 05:40:00,
2013-02-20 00:50:00,34.7,32.3,29.60,NW,307,1.0,5.0,91,0.00,,OVC080,0.00,VWS V14.01,2013-02-20 05:50:00,
2013-02-20 01:00:00,34.6,32.2,29.61,WNW,296,1.0,7.0,91,0.00,,OVC080,0.00,VWS V14.01,2013-02-20 06:00:00,
2013-02-20 01:10:00,34.6,32.0,29.60,West,268,0.0,5.0,90,0.00,,OVC080,0.00,VWS V14.01,2013-02-20 06:10:00,
2013-02-20 01:20:00,34.5,31.9,29.61,West,270,1.0,10.0,90,0.00,,OVC080,0.00,VWS V14.01,2013-02-20 06:20:00,
2013-02-20 01:30:00,32.8,30.5,29.62,WNW,300,7.0,12.0,91,0.00,,OVC080,0.00,VWS V14.01,2013-02-20 06:30:00,
2013-02-20 01:40:00,31.8,29.8,29.62,NW,318,3.0,11.0,92,0.00,,OVC080,0.00,VWS V14.01,2013-02-20 06:40:00,
2013-02-20 01:50:00,31.8,29.2,29.62,WNW,297,8.0,11.0,90,0.00,,OVC080,0.00,VWS V14.01,2013-02-20 06:50:00,
2013-02-20 02:00:00,31.9,28.8,29.63,NW,309,5.0,9.0,88,0.00,,OVC080,0.00,VWS V14.01,2013-02-20 07:00:00,
2013-02-20 02:10:00,31.9,28.2,29.63,WNW,296,2.0,9.0,86,0.00,,OVC037,0.00,VWS V14.01,2013-02-20 07:10:00,
2013-02-20 02:20:00,31.8,28.4,29.63,NW,313,5.0,8.0,87,0.00,,OVC037,0.00,VWS V14.01,2013-02-20 07:20:00,
2013-02-20 02:30:00,31.7,28.3,29.63,West,259,3.0,6.0,87,0.00,,OVC037,0.00,VWS V14.01,2013-02-20 07:30:00,
2013-02-20 02:40:00,31.5,27.8,29.64,WNW,284,5.0,6.0,86,0.00,,OVC037,0.00,VWS V14.01,2013-02-20 07:40:00,
2013-02-20 02:50:00,31.4,27.4,29.64,WNW,298,6.0,12.0,85,0.00,,OVC037,0.00,VWS V14.01,2013-02-20 07:50:00,
2013-02-20 03:00:00,31.3,27.6,29.64,West,277,1.0,6.0,86,0.00,,OVC037,0.00,VWS V14.01,2013-02-20 08:00:00,
2013-02-20 03:10:00,31.2,27.5,29.64,West,266,1.0,5.0,86,0.00,,OVC060,0.00,VWS V14.01,2013-02-20 08:10:00,
2013-02-20 03:20:00,31.0,27.3,29.64,West,280,0.0,4.0,86,0.00,,OVC060,0.00,VWS V14.01,2013-02-20 08:20:00,
2013-02-20 03:30:00,30.9,27.5,29.63,NNW,343,3.0,3.0,87,0.00,,OVC060,0.00,VWS V14.01,2013-02-20 08:30:00,
2013-02-20 03:40:00,30.6,26.9,29.64,NW,312,2.0,9.0,86,0.00,,OVC060,0.00,VWS V14.01,2013-02-20 08:40:00,
2013-02-20 03:50:00,30.4,27.0,29.64,WNW,293,4.0,7.0,87,0.00,,OVC060,0.00,VWS V14.01,2013-02-20 08:50:00,
2013-02-20 04:00:00,30.0,26.9,29.65,NW,316,2.0,8.0,88,0.00,,OVC060,0.00,VWS V14.01,2013-02-20 09:00:00,
2013-02-20 04:10:00,29.7,26.6,29.65,NNW,330,1.0,9.0,88,0.00,,OVC085,0.00,VWS V14.01,2013-02-20 09:10:00,
2013-02-20 04:20:00,29.6,25.9,29.65,WNW,293,3.0,12.0,86,0.00,,OVC085,0.00,VWS V14.01,2013-02-20 09:20:00,
2013-02-20 04:30:00,29.3,25.6,29.65,West,264,2.0,9.0,86,0.00,,OVC085,0.00,VWS V14.01,2013-02-20 09:30:00,
2013-02-20 04:40:00,28.7,25.9,29.66,WNW,290,3.0,9.0,89,0.00,,OVC085,0.00,VWS V14.01,2013-02-20 09:40:00,
2013-02-20 04:50:00,28.4,25.3,29.66,WNW,295,3.0,10.0,88,0.00,,OVC085,0.00,VWS V14.01,2013-02-20 09:50:00,
2013-02-20 05:00:00,27.3,18.1,29.69,NW,325,2.0,10.0,68,0.00,,OVC006,0.00,VWS V14.01,2013-02-20 10:00:00,
2013-02-20 05:01:00,28.5,25.1,29.66,West,274,4.0,6.0,87,0.00,,OVC085,0.00,VWS V14.01,2013-02-20 10:01:00,
2013-02-20 05:10:00,28.3,24.7,29.67,WNW,288,2.0,9.0,86,0.00,,OVC090,0.00,VWS V14.01,2013-02-20 10:10:00,
2013-02-20 05:20:00,28.1,23.3,29.67,WNW,291,6.0,8.0,82,0.00,,OVC090,0.00,VWS V14.01,2013-02-20 10:20:00,
2013-02-20 05:30:00,27.9,21.0,29.68,West,276,3.0,10.0,75,0.00,,OVC090,0.00,VWS V14.01,2013-02-20 10:30:00,
2013-02-20 05:40:00,27.8,20.0,29.69,NW,312,1.0,7.0,72,0.00,,OVC090,0.00,VWS V14.01,2013-02-20 10:40:00,
2013-02-20 05:50:00,27.5,19.0,29.69,SW,225,5.0,10.0,70,0.00,,OVC090,0.00,VWS V14.01,2013-02-20 10:50:00,
2013-02-20 06:00:00,25.9,15.8,29.71,WNW,300,2.0,8.0,65,0.00,,OVC006,0.00,VWS V14.01,2013-02-20 11:00:00,
2013-02-20 06:01:00,27.3,18.1,29.69,NW,325,2.0,10.0,68,0.00,,OVC090,0.00,VWS V14.01,2013-02-20 11:01:00,
2013-02-20 06:10:00,27.0,17.5,29.70,WSW,242,5.0,12.0,67,0.00,,BKN100,0.00,VWS V14.01,2013-02-20 11:10:00,
2013-02-20 06:20:00,26.8,17.0,29.70,WNW,293,4.0,9.0,66,0.00,,BKN100,0.00,VWS V14.01,2013-02-20 11:20:00,
2013-02-20 06:30:00,26.7,17.2,29.71,NW,318,2.0,9.0,67,0.00,,BKN100,0.00,VWS V14.01,2013-02-20 11:30:00,
2013-02-20 06:40:00,26.4,16.2,29.71,NW,304,2.0,8.0,65,0.00,,BKN100,0.00,VWS V14.01,2013-02-20 11:40:00,
2013-02-20 06:50:00,26.1,15.6,29.71,NW,305,7.0,10.0,64,0.00,,BKN100,0.00,VWS V14.01,2013-02-20 11:50:00,
2013-02-20 07:00:00,25.9,15.8,29.71,WNW,300,2.0,8.0,65,0.00,,BKN100,0.00,VWS V14.01,2013-02-20 12:00:00,
2013-02-20 07:10:00,25.8,16.0,29.72,WSW,256,2.0,9.0,66,0.00,,BKN110,0.00,VWS V14.01,2013-02-20 12:10:00,
2013-02-20 07:20:00,25.8,16.0,29.72,West,266,2.0,8.0,66,0.00,,BKN110,0.00,VWS V14.01,2013-02-20 12:20:00,
2013-02-20 07:30:00,25.8,15.7,29.72,West,273,4.0,5.0,65,0.00,,BKN110,0.00,VWS V14.01,2013-02-20 12:30:00,
2013-02-20 07:40:00,25.7,15.6,29.73,NW,321,6.0,7.0,65,0.00,,BKN110,0.00,VWS V14.01,2013-02-20 12:40:00,
2013-02-20 07:50:00,25.7,15.2,29.73,WNW,285,2.0,7.0,64,0.00,,BKN110,0.00,VWS V14.01,2013-02-20 12:50:00,
2013-02-20 08:00:00,26.4,15.9,29.73,WSW,248,2.0,6.0,64,0.00,,BKN110,0.00,VWS V14.01,2013-02-20 13:00:00,
2013-02-20 08:10:00,26.9,16.0,29.73,WSW,253,3.0,8.0,63,0.00,,SCT250,0.00,VWS V14.01,2013-02-20 13:10:00,
2013-02-20 08:20:00,27.1,16.2,29.73,WNW,302,1.0,8.0,63,0.00,,SCT250,0.00,VWS V14.01,2013-02-20 13:20:00,
2013-02-20 08:30:00,27.4,16.1,29.73,NW,309,2.0,9.0,62,0.00,,SCT250,0.00,VWS V14.01,2013-02-20 13:30:00,
2013-02-20 08:40:00,27.7,15.6,29.73,WNW,301,4.0,13.0,60,0.00,,SCT250,0.00,VWS V14.01,2013-02-20 13:40:00,
2013-02-20 08:50:00,28.0,15.5,29.73,SW,232,2.0,10.0,59,0.00,,SCT250,0.00,VWS V14.01,2013-02-20 13:50:00,
2013-02-20 09:00:00,27.3,14.1,29.73,NW,307,5.0,12.0,57,0.00,,OVC006,0.00,VWS V14.01,2013-02-20 14:00:00,
2013-02-20 09:01:00,28.0,14.8,29.73,NW,311,1.0,9.0,57,0.00,,SCT250,0.00,VWS V14.01,2013-02-20 14:01:00,
2013-02-20 09:10:00,27.8,14.2,29.73,WNW,295,6.0,10.0,56,0.00,,FEW045,0.00,VWS V14.01,2013-02-20 14:10:00,
2013-02-20 09:20:00,27.2,14.0,29.73,WNW,287,2.0,13.0,57,0.00,,FEW045,0.00,VWS V14.01,2013-02-20 14:20:00,
2013-02-20 09:30:00,27.3,14.5,29.73,WNW,293,2.0,10.0,58,0.00,,FEW045,0.00,VWS V14.01,2013-02-20 14:30:00,
2013-02-20 09:40:00,27.4,14.2,29.73,North,356,6.0,10.0,57,0.00,,FEW045,0.00,VWS V14.01,2013-02-20 14:40:00,
2013-02-20 09:50:00,27.5,14.7,29.73,NNW,331,4.0,11.0,58,0.00,,FEW045,0.00,VWS V14.01,2013-02-20 14:50:00,
2013-02-20 10:00:00,27.9,13.4,29.74,NW,308,12.0,12.0,54,0.00,,OVC006,0.00,VWS V14.01,2013-02-20 15:00:00,
2013-02-20 10:01:00,27.3,14.1,29.73,NW,307,5.0,12.0,57,0.00,,FEW045,0.00,VWS V14.01,2013-02-20 15:01:00,
2013-02-20 10:10:00,27.0,13.4,29.74,WNW,303,10.0,12.0,56,0.00,,SCT200,0.00,VWS V14.01,2013-02-20 15:10:00,
2013-02-20 10:20:00,27.0,13.8,29.74,WNW,285,1.0,11.0,57,0.00,,SCT200,0.00,VWS V14.01,2013-02-20 15:20:00,
2013-02-20 10:30:00,28.0,14.3,29.74,WSW,248,1.0,11.0,56,0.00,,SCT200,0.00,VWS V14.01,2013-02-20 15:30:00,
2013-02-20 10:40:00,28.2,14.1,29.73,NNW,343,4.0,10.0,55,0.00,,SCT200,0.00,VWS V14.01,2013-02-20 15:40:00,
2013-02-20 10:50:00,28.1,14.0,29.73,West,274,6.0,10.0,55,0.00,,SCT200,0.00,VWS V14.01,2013-02-20 15:50:00,
2013-02-20 11:00:00,27.9,13.4,29.74,NW,308,12.0,12.0,54,0.00,,SCT200,0.00,VWS V14.01,2013-02-20 16:00:00,
2013-02-20 11:10:00,28.6,14.1,29.73,NNW,330,1.0,12.0,54,0.00,,BKN200,0.00,VWS V14.01,2013-02-20 16:10:00,
2013-02-20 11:20:00,28.9,13.9,29.74,West,277,4.0,12.0,53,0.00,,BKN200,0.00,VWS V14.01,2013-02-20 16:20:00,
2013-02-20 11:30:00,30.4,14.9,29.73,SW,235,1.0,8.0,52,0.00,,BKN200,0.00,VWS V14.01,2013-02-20 16:30:00,
2013-02-20 11:40:00,30.7,14.7,29.73,NW,313,2.0,9.0,51,0.00,,BKN200,0.00,VWS V14.01,2013-02-20 16:40:00,
2013-02-20 11:50:00,30.2,14.7,29.72,West,274,4.0,13.0,52,0.00,,BKN200,0.00,VWS V14.01,2013-02-20 16:50:00,
2013-02-20 12:00:00,29.8,13.9,29.72,NW,316,6.0,11.0,51,0.00,,BKN200,0.00,VWS V14.01,2013-02-20 17:00:00,
2013-02-20 12:10:00,29.7,13.4,29.72,North,349,5.0,15.0,50,0.00,,BKN060,0.00,VWS V14.01,2013-02-20 17:10:00,
2013-02-20 12:20:00,30.0,14.5,29.72,NNW,335,8.0,10.0,52,0.00,,BKN060,0.00,VWS V14.01,2013-02-20 17:20:00,
2013-02-20 12:30:00,29.6,13.7,29.71,NW,311,7.0,10.0,51,0.00,,BKN060,0.00,VWS V14.01,2013-02-20 17:30:00,
2013-02-20 12:40:00,29.6,13.7,29.72,WNW,293,6.0,10.0,51,0.00,,BKN060,0.00,VWS V14.01,2013-02-20 17:40:00,
2013-02-20 12:50:00,30.3,14.8,29.71,SW,218,1.0,11.0,52,0.00,,BKN060,0.00,VWS V14.01,2013-02-20 17:50:00,
2013-02-20 13:00:00,29.5,14.1,29.71,WSW,252,2.0,10.0,52,0.00,,BKN060,0.00,VWS V14.01,2013-02-20 18:00:00,
2013-02-20 13:10:00,29.6,13.7,29.71,SW,232,4.0,14.0,51,0.00,,BKN200,0.00,VWS V14.01,2013-02-20 18:10:00,
2013-02-20 13:20:00,29.4,13.5,29.72,NW,326,5.0,16.0,51,0.00,,BKN200,0.00,VWS V14.01,2013-02-20 18:20:00,
2013-02-20 13:30:00,28.8,12.5,29.71,NW,312,4.0,19.0,50,0.00,,BKN200,0.00,VWS V14.01,2013-02-20 18:30:00,
2013-02-20 13:40:00,28.9,12.6,29.72,West,271,2.0,18.0,50,0.00,,BKN200,0.00,VWS V14.01,2013-02-20 18:40:00,
2013-02-20 13:50:00,29.0,12.2,29.71,NW,325,6.0,11.0,49,0.00,,BKN200,0.00,VWS V14.01,2013-02-20 18:50:00,
2013-02-20 14:00:00,29.0,13.1,29.73,NNW,333,8.0,13.0,51,0.00,,OVC006,0.00,VWS V14.01,2013-02-20 19:00:00,
2013-02-20 14:01:00,28.6,11.9,29.72,SSW,211,2.0,19.0,49,0.00,,BKN200,0.00,VWS V14.01,2013-02-20 19:01:00,
2013-02-20 14:10:00,28.4,11.7,29.72,NW,312,3.0,12.0,49,0.00,,BKN200,0.00,VWS V14.01,2013-02-20 19:10:00,
2013-02-20 14:20:00,28.0,11.3,29.73,NW,320,8.0,17.0,49,0.00,,BKN200,0.00,VWS V14.01,2013-02-20 19:20:00,
2013-02-20 14:30:00,27.9,13.4,29.74,West,260,2.0,15.0,54,0.00,,OVC006,0.00,VWS V14.01,2013-02-20 19:30:00,
2013-02-20 14:31:00,27.9,12.1,29.72,West,266,3.0,11.0,51,0.00,,BKN200,0.00,VWS V14.01,2013-02-20 19:31:00,
2013-02-20 14:40:00,27.9,11.7,29.73,WSW,246,3.0,10.0,50,0.00,,BKN200,0.00,VWS V14.01,2013-02-20 19:40:00,
2013-02-20 14:50:00,28.1,12.3,29.73,NW,309,2.0,13.0,51,0.00,,BKN200,0.00,VWS V14.01,2013-02-20 19:50:00,
2013-02-20 15:00:00,27.5,13.9,29.75,NW,314,4.0,8.0,56,0.00,,OVC006,0.00,VWS V14.01,2013-02-20 20:00:00,
2013-02-20 15:01:00,29.0,13.1,29.73,NNW,333,8.0,13.0,51,0.00,,BKN200,0.00,VWS V14.01,2013-02-20 20:01:00,
2013-02-20 15:10:00,28.5,13.1,29.73,West,270,3.0,9.0,52,0.00,,BKN170,0.00,VWS V14.01,2013-02-20 20:10:00,
2013-02-20 15:20:00,28.1,12.8,29.74,NNW,329,6.0,14.0,52,0.00,,BKN170,0.00,VWS V14.01,2013-02-20 20:20:00,
2013-02-20 15:30:00,26.3,11.5,29.76,NW,314,2.0,10.0,53,0.00,,OVC006,0.00,VWS V14.01,2013-02-20 20:30:00,
2013-02-20 15:31:00,27.9,13.4,29.74,West,260,2.0,15.0,54,0.00,,BKN170,0.00,VWS V14.01,2013-02-20 20:31:00,
2013-02-20 15:40:00,27.2,11.9,29.74,WNW,294,4.0,11.0,52,0.00,,BKN170,0.00,VWS V14.01,2013-02-20 20:40:00,
2013-02-20 15:50:00,27.3,12.9,29.75,West,279,3.0,18.0,54,0.00,,BKN170,0.00,VWS V14.01,2013-02-20 20:50:00,
2013-02-20 16:00:00,25.8,11.9,29.76,NNW,334,9.0,14.0,55,0.00,,OVC006,0.00,VWS V14.01,2013-02-20 21:00:00,
2013-02-20 16:01:00,27.5,13.9,29.75,NW,314,4.0,8.0,56,0.00,,BKN170,0.00,VWS V14.01,2013-02-20 21:01:00,
2013-02-20 16:10:00,27.0,11.3,29.75,NW,314,2.0,14.0,51,0.00,,BKN170,0.00,VWS V14.01,2013-02-20 21:10:00,
2013-02-20 16:20:00,26.5,10.8,29.76,WNW,284,8.0,11.0,51,0.00,,BKN170,0.00,VWS V14.01,2013-02-20 21:20:00,
2013-02-20 16:30:00,24.7,9.2,29.77,WNW,284,4.0,21.0,51,0.00,,OVC006,0.00,VWS V14.01,2013-02-20 21:30:00,
2013-02-20 16:31:00,26.3,11.5,29.76,NW,314,2.0,10.0,53,0.00,,BKN170,0.00,VWS V14.01,2013-02-20 21:31:00,
2013-02-20 16:40:00,26.3,11.9,29.76,NNW,328,2.0,13.0,54,0.00,,BKN170,0.00,VWS V14.01,2013-02-20 21:40:00,
2013-02-20 16:50:00,26.1,11.7,29.76,WNW,303,3.0,14.0,54,0.00,,BKN170,0.00,VWS V14.01,2013-02-20 21:50:00,
2013-02-20 17:00:00,24.1,9.0,29.78,NNW,338,2.0,11.0,52,0.00,,OVC006,0.00,VWS V14.01,2013-02-20 22:00:00,
2013-02-20 17:01:00,25.8,11.9,29.76,NNW,334,9.0,14.0,55,0.00,,BKN170,0.00,VWS V14.01,2013-02-20 22:01:00,
2013-02-20 17:10:00,25.5,10.8,29.76,West,259,5.0,17.0,53,0.00,,SCT075,0.00,VWS V14.01,2013-02-20 22:10:00,
2013-02-20 17:20:00,25.2,10.5,29.77,NW,309,7.0,14.0,53,0.00,,SCT075,0.00,VWS V14.01,2013-02-20 22:20:00,
2013-02-20 17:30:00,23.9,8.0,29.79,WNW,283,3.0,14.0,50,0.00,,OVC006,0.00,VWS V14.01,2013-02-20 22:30:00,
2013-02-20 17:31:00,24.7,9.2,29.77,WNW,284,4.0,21.0,51,0.00,,SCT075,0.00,VWS V14.01,2013-02-20 22:31:00,
2013-02-20 17:40:00,24.4,9.3,29.77,WNW,293,2.0,11.0,52,0.00,,SCT075,0.00,VWS V14.01,2013-02-20 22:40:00,
2013-02-20 17:50:00,24.3,10.1,29.78,WNW,290,3.0,7.0,54,0.00,,SCT075,0.00,VWS V14.01,2013-02-20 22:50:00,
2013-02-20 18:00:00,23.3,8.3,29.80,NW,325,5.0,15.0,52,0.00,,OVC006,0.00,VWS V14.01,2013-02-20 23:00:00,
2013-02-20 18:01:00,24.1,9.0,29.78,NNW,338,2.0,11.0,52,0.00,,SCT075,0.00,VWS V14.01,2013-02-20 23:01:00,
2013-02-20 18:10:00,24.1,8.6,29.79,NW,323,7.0,14.0,51,0.00,,SCT060,0.00,VWS V14.01,2013-02-20 23:10:00,
2013-02-20 18:20:00,24.0,8.1,29.79,WNW,295,5.0,21.0,50,0.00,,SCT060,0.00,VWS V14.01,2013-02-20 23:20:00,
2013-02-20 18:30:00,23.9,8.0,29.79,WNW,283,3.0,14.0,50,0.00,,SCT060,0.00,VWS V14.01,2013-02-20 23:30:00,
2013-02-20 18:40:00,23.7,8.2,29.79,NW,322,3.0,10.0,51,0.00,,SCT060,0.00,VWS V14.01,2013-02-20 23:40:00,
2013-02-20 18:50:00,23.4,8.4,29.79,WNW,295,7.0,10.0,52,0.00,,SCT060,0.00,VWS V14.01,2013-02-20 23:50:00,
2013-02-20 19:00:00,23.3,8.3,29.80,NW,325,5.0,15.0,52,0.00,,SCT060,0.00,VWS V14.01,2013-02-21 00:00:00,
2013-02-20 19:10:00,23.2,8.2,29.80,WNW,294,5.0,10.0,52,0.00,,SCT100,0.00,VWS V14.01,2013-02-21 00:10:00,
2013-02-20 19:20:00,23.0,8.9,29.80,WNW,294,2.0,12.0,54,0.00,,SCT100,0.00,VWS V14.01,2013-02-21 00:20:00,
2013-02-20 19:30:00,22.7,9.0,29.80,WNW,291,3.0,9.0,55,0.00,,SCT100,0.00,VWS V14.01,2013-02-21 00:30:00,
2013-02-20 19:40:00,22.5,9.2,29.80,WNW,283,2.0,12.0,56,0.00,,SCT100,0.00,VWS V14.01,2013-02-21 00:40:00,
2013-02-20 19:50:00,22.2,9.7,29.81,WSW,243,2.0,11.0,58,0.00,,SCT100,0.00,VWS V14.01,2013-02-21 00:50:00,
2013-02-20 20:00:00,21.9,9.8,29.81,West,260,3.0,8.0,59,0.00,,SCT100,0.00,VWS V14.01,2013-02-21 01:00:00,
2013-02-20 20:10:00,21.7,10.0,29.81,SW,231,2.0,7.0,60,0.00,,SCT047,0.00,VWS V14.01,2013-02-21 01:10:00,
2013-02-20 20:20:00,21.5,10.1,29.81,SW,220,3.0,7.0,61,0.00,,SCT047,0.00,VWS V14.01,2013-02-21 01:20:00,
2013-02-20 20:30:00,21.2,9.9,29.81,West,278,2.0,10.0,61,0.00,,SCT047,0.00,VWS V14.01,2013-02-21 01:30:00,
2013-02-20 20:40:00,21.2,9.9,29.81,NW,317,3.0,8.0,61,0.00,,SCT047,0.00,VWS V14.01,2013-02-21 01:40:00,
2013-02-20 20:50:00,21.1,10.1,29.81,WSW,255,2.0,11.0,62,0.00,,SCT047,0.00,VWS V14.01,2013-02-21 01:50:00,
2013-02-20 21:00:00,21.1,10.5,29.82,West,264,2.0,6.0,63,0.00,,SCT047,0.00,VWS V14.01,2013-02-21 02:00:00,
2013-02-20 21:10:00,21.1,10.5,29.82,WNW,288,1.0,8.0,63,0.00,,FEW045,0.00,VWS V14.01,2013-02-21 02:10:00,
2013-02-20 21:20:00,20.9,10.3,29.82,West,276,4.0,7.0,63,0.00,,FEW045,0.00,VWS V14.01,2013-02-21 02:20:00,
2013-02-20 21:30:00,21.1,10.8,29.83,West,271,0.0,10.0,64,0.00,,FEW045,0.00,VWS V14.01,2013-02-21 02:30:00,
2013-02-20 21:40:00,21.0,10.8,29.83,West,264,1.0,6.0,64,0.00,,FEW045,0.00,VWS V14.01,2013-02-21 02:40:00,
2013-02-20 21:50:00,21.0,10.8,29.83,NW,326,4.0,6.0,64,0.00,,FEW045,0.00,VWS V14.01,2013-02-21 02:50:00,
2013-02-20 22:00:00,21.1,11.2,29.83,NW,316,6.0,10.0,65,0.00,,FEW045,0.00,VWS V14.01,2013-02-21 03:00:00,
2013-02-20 22:10:00,21.0,11.1,29.84,NW,304,1.0,12.0,65,0.00,,BKN180,0.00,VWS V14.01,2013-02-21 03:10:00,
2013-02-20 22:20:00,20.9,11.3,29.85,West,273,1.0,12.0,66,0.00,,BKN180,0.00,VWS V14.01,2013-02-21 03:20:00,
2013-02-20 22:30:00,20.8,11.2,29.86,NW,312,2.0,7.0,66,0.00,,BKN180,0.00,VWS V14.01,2013-02-21 03:30:00,
2013-02-20 22:40:00,20.9,11.7,29.85,WNW,298,1.0,9.0,67,0.00,,BKN180,0.00,VWS V14.01,2013-02-21 03:40:00,
2013-02-20 22:50:00,20.8,11.6,29.85,WNW,283,3.0,11.0,67,0.00,,BKN180,0.00,VWS V14.01,2013-02-21 03:50:00,
2013-02-20 23:00:00,20.9,11.7,29.85,NW,308,1.0,9.0,67,0.00,,BKN180,0.00,VWS V14.01,2013-02-21 04:00:00,
2013-02-20 23:10:00,21.1,11.9,29.84,SW,236,3.0,8.0,67,0.00,,BKN140,0.00,VWS V14.01,2013-02-21 04:10:00,
2013-02-20 23:20:00,21.1,12.2,29.84,WNW,285,3.0,11.0,68,0.00,,BKN140,0.00,VWS V14.01,2013-02-21 04:20:00,
2013-02-20 23:30:00,21.1,12.2,29.85,West,276,1.0,7.0,68,0.00,,BKN140,0.00,VWS V14.01,2013-02-21 04:30:00,
2013-02-20 23:40:00,21.2,12.3,29.84,West,262,1.0,7.0,68,0.00,,BKN140,0.00,VWS V14.01,2013-02-21 04:40:00,
2013-02-20 23:50:00,21.5,12.9,29.84,NW,308,2.0,13.0,69,0.00,,BKN140,0.00,VWS V14.01,2013-02-21 04:50:00,